sensor_id;sensor_type;location;lat;lon;timestamp;temperature;humidity
39095;DHT22;24840;47.508;19.376;2023-07-28T00:01:18;15.10;99.90
39095;DHT22;24840;47.508;19.376;2023-07-28T00:03:44;15.00;99.90
39095;DHT22;24840;47.508;19.376;2023-07-28T00:06:09;15.00;99.90
39095;DHT22;24840;47.508;19.376;2023-07-28T00:08:35;14.90;99.90
39095;DHT22;24840;47.508;19.376;2023-07-28T00:11:00;14.80;99.90
39095;DHT22;24840;47.508;19.376;2023-07-28T00:13:26;14.60;99.90
39095;DHT22;24840;47.508;19.376;2023-07-28T00:15:52;14.50;99.90
39095;DHT22;24840;47.508;19.376;2023-07-28T00:18:17;14.40;99.90
39095;DHT22;24840;47.508;19.376;2023-07-28T00:20:43;14.50;99.90
39095;DHT22;24840;47.508;19.376;2023-07-28T00:23:09;14.70;99.90
39095;DHT22;24840;47.508;19.376;2023-07-28T00:25:34;14.60;99.90
39095;DHT22;24840;47.508;19.376;2023-07-28T00:28:00;14.70;99.90
39095;DHT22;24840;47.508;19.376;2023-07-28T00:30:26;14.80;99.90
39095;DHT22;24840;47.508;19.376;2023-07-28T00:32:51;14.90;99.90
39095;DHT22;24840;47.508;19.376;2023-07-28T00:35:17;14.90;99.90
39095;DHT22;24840;47.508;19.376;2023-07-28T00:37:43;14.80;99.90
39095;DHT22;24840;47.508;19.376;2023-07-28T00:40:08;14.80;99.90
39095;DHT22;24840;47.508;19.376;2023-07-28T00:42:34;14.90;99.90
39095;DHT22;24840;47.508;19.376;2023-07-28T00:45:00;14.80;99.90
39095;DHT22;24840;47.508;19.376;2023-07-28T00:47:25;14.90;99.90
39095;DHT22;24840;47.508;19.376;2023-07-28T00:49:51;15.10;99.90
39095;DHT22;24840;47.508;19.376;2023-07-28T00:52:16;15.00;99.90
39095;DHT22;24840;47.508;19.376;2023-07-28T00:54:42;15.10;99.90
39095;DHT22;24840;47.508;19.376;2023-07-28T00:57:07;15.10;99.90
39095;DHT22;24840;47.508;19.376;2023-07-28T00:59:33;15.00;99.90
39095;DHT22;24840;47.508;19.376;2023-07-28T01:01:59;15.10;99.90
39095;DHT22;24840;47.508;19.376;2023-07-28T01:04:24;15.20;99.90
39095;DHT22;24840;47.508;19.376;2023-07-28T01:09:16;15.00;99.90
39095;DHT22;24840;47.508;19.376;2023-07-28T01:11:56;15.00;99.90
39095;DHT22;24840;47.508;19.376;2023-07-28T01:14:22;14.80;99.90
39095;DHT22;24840;47.508;19.376;2023-07-28T01:16:48;14.70;99.90
39095;DHT22;24840;47.508;19.376;2023-07-28T01:19:15;14.70;99.90
39095;DHT22;24840;47.508;19.376;2023-07-28T01:21:41;14.80;99.90
39095;DHT22;24840;47.508;19.376;2023-07-28T01:26:55;14.50;99.90
39095;DHT22;24840;47.508;19.376;2023-07-28T01:29:21;14.40;99.90
39095;DHT22;24840;47.508;19.376;2023-07-28T01:31:47;14.50;99.90
39095;DHT22;24840;47.508;19.376;2023-07-28T01:34:13;14.40;99.90
39095;DHT22;24840;47.508;19.376;2023-07-28T01:36:38;14.40;99.90
39095;DHT22;24840;47.508;19.376;2023-07-28T01:39:05;14.30;99.90
39095;DHT22;24840;47.508;19.376;2023-07-28T01:41:30;14.30;99.90
39095;DHT22;24840;47.508;19.376;2023-07-28T01:43:56;14.30;99.90
39095;DHT22;24840;47.508;19.376;2023-07-28T01:46:22;14.30;99.90
39095;DHT22;24840;47.508;19.376;2023-07-28T01:48:47;14.70;99.90
39095;DHT22;24840;47.508;19.376;2023-07-28T01:51:13;14.60;99.90
39095;DHT22;24840;47.508;19.376;2023-07-28T01:53:39;14.60;99.90
39095;DHT22;24840;47.508;19.376;2023-07-28T01:56:04;14.50;99.90
39095;DHT22;24840;47.508;19.376;2023-07-28T01:58:30;14.50;99.90
39095;DHT22;24840;47.508;19.376;2023-07-28T02:00:58;14.70;99.90
39095;DHT22;24840;47.508;19.376;2023-07-28T02:03:24;14.80;99.90
39095;DHT22;24840;47.508;19.376;2023-07-28T02:05:49;14.80;99.90
39095;DHT22;24840;47.508;19.376;2023-07-28T02:08:15;14.80;99.90
39095;DHT22;24840;47.508;19.376;2023-07-28T02:10:42;14.70;99.90
39095;DHT22;24840;47.508;19.376;2023-07-28T02:13:09;14.70;99.90
39095;DHT22;24840;47.508;19.376;2023-07-28T02:15:34;14.60;99.90
39095;DHT22;24840;47.508;19.376;2023-07-28T02:18:00;14.70;99.90
39095;DHT22;24840;47.508;19.376;2023-07-28T02:20:25;14.70;99.90
39095;DHT22;24840;47.508;19.376;2023-07-28T02:22:51;14.70;99.90
39095;DHT22;24840;47.508;19.376;2023-07-28T02:25:16;14.80;99.90
39095;DHT22;24840;47.508;19.376;2023-07-28T02:27:42;14.70;99.90
39095;DHT22;24840;47.508;19.376;2023-07-28T02:30:08;14.70;99.90
39095;DHT22;24840;47.508;19.376;2023-07-28T02:32:33;14.90;99.90
39095;DHT22;24840;47.508;19.376;2023-07-28T02:34:59;14.80;99.90
39095;DHT22;24840;47.508;19.376;2023-07-28T02:37:25;14.80;99.90
39095;DHT22;24840;47.508;19.376;2023-07-28T02:39:50;14.70;99.90
39095;DHT22;24840;47.508;19.376;2023-07-28T02:42:16;14.70;99.90
39095;DHT22;24840;47.508;19.376;2023-07-28T02:44:42;14.70;99.90
39095;DHT22;24840;47.508;19.376;2023-07-28T02:47:07;14.70;99.90
39095;DHT22;24840;47.508;19.376;2023-07-28T02:49:33;14.70;99.90
39095;DHT22;24840;47.508;19.376;2023-07-28T02:51:58;14.60;99.90
39095;DHT22;24840;47.508;19.376;2023-07-28T02:54:24;14.80;99.90
39095;DHT22;24840;47.508;19.376;2023-07-28T02:56:52;14.80;99.90
39095;DHT22;24840;47.508;19.376;2023-07-28T02:59:18;15.00;99.90
39095;DHT22;24840;47.508;19.376;2023-07-28T03:01:43;15.00;99.90
39095;DHT22;24840;47.508;19.376;2023-07-28T03:04:09;15.10;99.90
39095;DHT22;24840;47.508;19.376;2023-07-28T03:06:34;15.00;99.90
39095;DHT22;24840;47.508;19.376;2023-07-28T03:09:00;15.10;99.90
39095;DHT22;24840;47.508;19.376;2023-07-28T03:11:25;15.10;99.90
39095;DHT22;24840;47.508;19.376;2023-07-28T03:13:51;15.00;99.90
39095;DHT22;24840;47.508;19.376;2023-07-28T03:16:17;15.00;99.90
39095;DHT22;24840;47.508;19.376;2023-07-28T03:18:42;15.00;99.90
39095;DHT22;24840;47.508;19.376;2023-07-28T03:21:08;15.00;99.90
39095;DHT22;24840;47.508;19.376;2023-07-28T03:23:34;15.00;99.90
39095;DHT22;24840;47.508;19.376;2023-07-28T03:25:59;15.00;99.90
39095;DHT22;24840;47.508;19.376;2023-07-28T03:28:25;14.90;99.90
39095;DHT22;24840;47.508;19.376;2023-07-28T03:30:50;14.90;99.90
39095;DHT22;24840;47.508;19.376;2023-07-28T03:33:16;15.00;99.90
39095;DHT22;24840;47.508;19.376;2023-07-28T03:35:42;14.90;99.90
39095;DHT22;24840;47.508;19.376;2023-07-28T03:38:07;15.00;99.90
39095;DHT22;24840;47.508;19.376;2023-07-28T03:40:33;14.90;99.90
39095;DHT22;24840;47.508;19.376;2023-07-28T03:43:01;15.30;99.90
39095;DHT22;24840;47.508;19.376;2023-07-28T03:45:27;15.10;99.90
39095;DHT22;24840;47.508;19.376;2023-07-28T03:47:52;15.20;99.90
39095;DHT22;24840;47.508;19.376;2023-07-28T03:50:18;15.10;99.90
39095;DHT22;24840;47.508;19.376;2023-07-28T03:52:43;15.00;99.90
39095;DHT22;24840;47.508;19.376;2023-07-28T03:55:09;14.90;99.90
39095;DHT22;24840;47.508;19.376;2023-07-28T03:57:35;15.00;99.90
39095;DHT22;24840;47.508;19.376;2023-07-28T04:00:00;15.10;99.90
39095;DHT22;24840;47.508;19.376;2023-07-28T04:02:26;15.20;99.90
39095;DHT22;24840;47.508;19.376;2023-07-28T04:04:57;15.30;99.90
39095;DHT22;24840;47.508;19.376;2023-07-28T04:07:22;15.30;99.90
39095;DHT22;24840;47.508;19.376;2023-07-28T04:09:48;15.10;99.90
39095;DHT22;24840;47.508;19.376;2023-07-28T04:12:13;15.20;99.90
39095;DHT22;24840;47.508;19.376;2023-07-28T04:14:39;15.30;99.90
39095;DHT22;24840;47.508;19.376;2023-07-28T04:17:06;15.40;99.90
39095;DHT22;24840;47.508;19.376;2023-07-28T04:19:32;15.60;99.90
39095;DHT22;24840;47.508;19.376;2023-07-28T04:21:59;15.40;99.90
39095;DHT22;24840;47.508;19.376;2023-07-28T04:24:25;15.50;99.90
39095;DHT22;24840;47.508;19.376;2023-07-28T04:26:51;15.50;99.90
39095;DHT22;24840;47.508;19.376;2023-07-28T04:29:16;15.70;99.90
39095;DHT22;24840;47.508;19.376;2023-07-28T04:31:42;15.70;99.90
39095;DHT22;24840;47.508;19.376;2023-07-28T04:34:07;15.70;99.90
39095;DHT22;24840;47.508;19.376;2023-07-28T04:36:34;15.70;99.90
39095;DHT22;24840;47.508;19.376;2023-07-28T04:38:59;15.70;99.90
39095;DHT22;24840;47.508;19.376;2023-07-28T04:41:25;15.80;99.90
39095;DHT22;24840;47.508;19.376;2023-07-28T04:43:50;15.80;99.90
39095;DHT22;24840;47.508;19.376;2023-07-28T04:46:16;16.00;99.90
39095;DHT22;24840;47.508;19.376;2023-07-28T04:48:41;15.90;99.90
39095;DHT22;24840;47.508;19.376;2023-07-28T04:51:07;15.90;99.90
39095;DHT22;24840;47.508;19.376;2023-07-28T04:53:33;15.90;99.90
39095;DHT22;24840;47.508;19.376;2023-07-28T04:55:58;15.90;99.90
39095;DHT22;24840;47.508;19.376;2023-07-28T04:58:24;16.10;99.90
39095;DHT22;24840;47.508;19.376;2023-07-28T05:00:49;16.10;99.90
39095;DHT22;24840;47.508;19.376;2023-07-28T05:03:15;16.10;99.90
39095;DHT22;24840;47.508;19.376;2023-07-28T05:05:44;16.30;99.90
39095;DHT22;24840;47.508;19.376;2023-07-28T05:08:10;16.30;99.90
39095;DHT22;24840;47.508;19.376;2023-07-28T05:10:35;16.50;99.90
39095;DHT22;24840;47.508;19.376;2023-07-28T05:13:01;16.60;99.90
39095;DHT22;24840;47.508;19.376;2023-07-28T05:15:29;16.70;99.90
39095;DHT22;24840;47.508;19.376;2023-07-28T05:17:55;16.70;99.90
39095;DHT22;24840;47.508;19.376;2023-07-28T05:20:20;16.80;99.90
39095;DHT22;24840;47.508;19.376;2023-07-28T05:22:46;16.80;99.90
39095;DHT22;24840;47.508;19.376;2023-07-28T05:25:11;16.80;99.90
39095;DHT22;24840;47.508;19.376;2023-07-28T05:27:37;16.90;99.90
39095;DHT22;24840;47.508;19.376;2023-07-28T05:30:03;17.00;99.90
39095;DHT22;24840;47.508;19.376;2023-07-28T05:32:28;17.20;99.90
39095;DHT22;24840;47.508;19.376;2023-07-28T05:34:54;17.20;99.90
39095;DHT22;24840;47.508;19.376;2023-07-28T05:37:19;17.30;99.90
39095;DHT22;24840;47.508;19.376;2023-07-28T05:39:45;17.40;99.90
39095;DHT22;24840;47.508;19.376;2023-07-28T05:42:11;17.50;99.90
39095;DHT22;24840;47.508;19.376;2023-07-28T05:44:36;17.60;99.90
39095;DHT22;24840;47.508;19.376;2023-07-28T05:47:02;17.70;99.90
39095;DHT22;24840;47.508;19.376;2023-07-28T05:49:27;17.80;99.90
39095;DHT22;24840;47.508;19.376;2023-07-28T05:51:53;17.90;99.90
39095;DHT22;24840;47.508;19.376;2023-07-28T05:54:18;18.00;99.90
39095;DHT22;24840;47.508;19.376;2023-07-28T05:56:44;18.10;99.90
39095;DHT22;24840;47.508;19.376;2023-07-28T05:59:10;18.10;99.90
39095;DHT22;24840;47.508;19.376;2023-07-28T06:01:35;18.20;99.90
39095;DHT22;24840;47.508;19.376;2023-07-28T06:04:01;18.40;99.90
39095;DHT22;24840;47.508;19.376;2023-07-28T06:06:26;18.50;99.90
39095;DHT22;24840;47.508;19.376;2023-07-28T06:08:52;18.50;99.90
39095;DHT22;24840;47.508;19.376;2023-07-28T06:11:18;18.60;99.90
39095;DHT22;24840;47.508;19.376;2023-07-28T06:13:44;18.80;99.90
39095;DHT22;24840;47.508;19.376;2023-07-28T06:16:11;18.90;99.90
39095;DHT22;24840;47.508;19.376;2023-07-28T06:18:37;19.00;99.60
39095;DHT22;24840;47.508;19.376;2023-07-28T06:21:02;19.10;98.80
39095;DHT22;24840;47.508;19.376;2023-07-28T06:23:28;19.10;98.50
39095;DHT22;24840;47.508;19.376;2023-07-28T06:25:54;19.20;99.10
39095;DHT22;24840;47.508;19.376;2023-07-28T06:28:20;19.30;97.80
39095;DHT22;24840;47.508;19.376;2023-07-28T06:30:46;19.30;98.50
39095;DHT22;24840;47.508;19.376;2023-07-28T06:33:11;19.40;97.80
39095;DHT22;24840;47.508;19.376;2023-07-28T06:35:37;19.50;97.80
39095;DHT22;24840;47.508;19.376;2023-07-28T06:38:03;19.90;96.90
39095;DHT22;24840;47.508;19.376;2023-07-28T06:40:28;20.40;96.90
39095;DHT22;24840;47.508;19.376;2023-07-28T06:42:54;20.50;95.80
39095;DHT22;24840;47.508;19.376;2023-07-28T06:45:20;20.70;95.20
39095;DHT22;24840;47.508;19.376;2023-07-28T06:47:46;21.10;95.10
39095;DHT22;24840;47.508;19.376;2023-07-28T06:50:12;21.30;95.30
39095;DHT22;24840;47.508;19.376;2023-07-28T06:52:38;21.50;94.00
39095;DHT22;24840;47.508;19.376;2023-07-28T06:55:03;21.70;94.70
39095;DHT22;24840;47.508;19.376;2023-07-28T06:57:29;21.90;92.90
39095;DHT22;24840;47.508;19.376;2023-07-28T06:59:56;21.90;93.40
39095;DHT22;24840;47.508;19.376;2023-07-28T07:02:21;21.60;93.00
39095;DHT22;24840;47.508;19.376;2023-07-28T07:04:47;21.40;93.10
39095;DHT22;24840;47.508;19.376;2023-07-28T07:07:12;22.00;92.80
39095;DHT22;24840;47.508;19.376;2023-07-28T07:09:38;22.50;92.70
39095;DHT22;24840;47.508;19.376;2023-07-28T07:12:04;23.10;90.30
39095;DHT22;24840;47.508;19.376;2023-07-28T07:14:29;23.40;91.30
39095;DHT22;24840;47.508;19.376;2023-07-28T07:16:55;23.50;90.40
39095;DHT22;24840;47.508;19.376;2023-07-28T07:19:21;22.60;89.90
39095;DHT22;24840;47.508;19.376;2023-07-28T07:21:46;22.30;91.10
39095;DHT22;24840;47.508;19.376;2023-07-28T07:24:13;22.20;91.30
39095;DHT22;24840;47.508;19.376;2023-07-28T07:26:41;22.10;91.10
39095;DHT22;24840;47.508;19.376;2023-07-28T07:29:07;22.20;91.00
39095;DHT22;24840;47.508;19.376;2023-07-28T07:31:33;22.10;90.80
39095;DHT22;24840;47.508;19.376;2023-07-28T07:33:59;22.30;91.50
39095;DHT22;24840;47.508;19.376;2023-07-28T07:36:25;22.50;91.40
39095;DHT22;24840;47.508;19.376;2023-07-28T07:38:50;22.90;89.70
39095;DHT22;24840;47.508;19.376;2023-07-28T07:41:16;23.70;90.70
39095;DHT22;24840;47.508;19.376;2023-07-28T07:43:45;23.90;88.40
39095;DHT22;24840;47.508;19.376;2023-07-28T07:46:11;23.70;90.00
39095;DHT22;24840;47.508;19.376;2023-07-28T07:48:36;23.60;89.30
39095;DHT22;24840;47.508;19.376;2023-07-28T07:51:02;23.20;89.40
39095;DHT22;24840;47.508;19.376;2023-07-28T07:53:27;22.70;88.50
39095;DHT22;24840;47.508;19.376;2023-07-28T07:55:53;22.40;88.80
39095;DHT22;24840;47.508;19.376;2023-07-28T07:58:19;22.30;91.00
39095;DHT22;24840;47.508;19.376;2023-07-28T08:00:44;22.40;88.80
39095;DHT22;24840;47.508;19.376;2023-07-28T08:03:10;22.50;90.20
39095;DHT22;24840;47.508;19.376;2023-07-28T08:05:35;22.90;88.20
39095;DHT22;24840;47.508;19.376;2023-07-28T08:08:01;22.90;88.40
39095;DHT22;24840;47.508;19.376;2023-07-28T08:10:27;23.00;89.30
39095;DHT22;24840;47.508;19.376;2023-07-28T08:12:53;23.00;89.60
39095;DHT22;24840;47.508;19.376;2023-07-28T08:15:18;23.20;90.20
39095;DHT22;24840;47.508;19.376;2023-07-28T08:17:45;23.10;88.30
39095;DHT22;24840;47.508;19.376;2023-07-28T08:20:11;23.00;87.60
39095;DHT22;24840;47.508;19.376;2023-07-28T08:22:37;22.90;87.60
39095;DHT22;24840;47.508;19.376;2023-07-28T08:25:03;23.10;88.50
39095;DHT22;24840;47.508;19.376;2023-07-28T08:27:29;23.30;90.00
39095;DHT22;24840;47.508;19.376;2023-07-28T08:29:55;23.00;86.80
39095;DHT22;24840;47.508;19.376;2023-07-28T08:32:20;23.10;88.70
39095;DHT22;24840;47.508;19.376;2023-07-28T08:34:47;23.10;87.60
39095;DHT22;24840;47.508;19.376;2023-07-28T08:37:13;23.10;89.50
39095;DHT22;24840;47.508;19.376;2023-07-28T08:39:38;23.20;87.30
39095;DHT22;24840;47.508;19.376;2023-07-28T08:42:04;23.00;87.20
39095;DHT22;24840;47.508;19.376;2023-07-28T08:44:33;23.10;87.00
39095;DHT22;24840;47.508;19.376;2023-07-28T08:47:02;23.00;86.80
39095;DHT22;24840;47.508;19.376;2023-07-28T08:49:29;23.00;89.70
39095;DHT22;24840;47.508;19.376;2023-07-28T08:51:59;23.30;86.90
39095;DHT22;24840;47.508;19.376;2023-07-28T08:54:24;23.20;86.30
39095;DHT22;24840;47.508;19.376;2023-07-28T08:56:50;23.20;86.30
39095;DHT22;24840;47.508;19.376;2023-07-28T08:59:22;23.10;86.70
39095;DHT22;24840;47.508;19.376;2023-07-28T09:01:51;23.20;86.50
39095;DHT22;24840;47.508;19.376;2023-07-28T09:04:17;23.40;87.30
39095;DHT22;24840;47.508;19.376;2023-07-28T09:06:47;23.50;87.10
39095;DHT22;24840;47.508;19.376;2023-07-28T09:09:13;23.60;87.00
39095;DHT22;24840;47.508;19.376;2023-07-28T09:11:49;23.60;85.80
39095;DHT22;24840;47.508;19.376;2023-07-28T09:14:15;24.10;84.60
39095;DHT22;24840;47.508;19.376;2023-07-28T09:16:45;24.70;81.20
39095;DHT22;24840;47.508;19.376;2023-07-28T09:19:10;25.70;83.60
39095;DHT22;24840;47.508;19.376;2023-07-28T09:21:37;26.00;81.40
39095;DHT22;24840;47.508;19.376;2023-07-28T09:24:06;26.20;76.90
39095;DHT22;24840;47.508;19.376;2023-07-28T09:26:42;26.30;77.40
39095;DHT22;24840;47.508;19.376;2023-07-28T09:31:36;26.80;77.30
39095;DHT22;24840;47.508;19.376;2023-07-28T09:34:07;26.60;74.80
39095;DHT22;24840;47.508;19.376;2023-07-28T09:36:34;27.50;74.80
39095;DHT22;24840;47.508;19.376;2023-07-28T09:38:59;27.50;74.20
39095;DHT22;24840;47.508;19.376;2023-07-28T09:41:27;27.50;74.60
39095;DHT22;24840;47.508;19.376;2023-07-28T09:43:54;27.70;73.20
39095;DHT22;24840;47.508;19.376;2023-07-28T09:46:21;27.90;75.90
39095;DHT22;24840;47.508;19.376;2023-07-28T09:48:47;28.00;72.90
39095;DHT22;24840;47.508;19.376;2023-07-28T09:51:17;27.70;72.90
39095;DHT22;24840;47.508;19.376;2023-07-28T09:53:53;27.90;71.50
39095;DHT22;24840;47.508;19.376;2023-07-28T09:56:19;28.00;70.40
39095;DHT22;24840;47.508;19.376;2023-07-28T09:58:49;28.10;71.40
39095;DHT22;24840;47.508;19.376;2023-07-28T10:01:15;28.20;70.20
39095;DHT22;24840;47.508;19.376;2023-07-28T10:03:41;27.70;70.50
39095;DHT22;24840;47.508;19.376;2023-07-28T10:06:06;28.90;73.90
39095;DHT22;24840;47.508;19.376;2023-07-28T10:08:32;29.20;68.20
39095;DHT22;24840;47.508;19.376;2023-07-28T10:10:58;29.00;69.70
39095;DHT22;24840;47.508;19.376;2023-07-28T10:13:24;29.20;69.70
39095;DHT22;24840;47.508;19.376;2023-07-28T10:15:49;28.90;70.50
39095;DHT22;24840;47.508;19.376;2023-07-28T10:18:15;29.00;67.50
39095;DHT22;24840;47.508;19.376;2023-07-28T10:20:42;29.10;70.30
39095;DHT22;24840;47.508;19.376;2023-07-28T10:23:14;30.00;67.20
39095;DHT22;24840;47.508;19.376;2023-07-28T10:25:40;30.30;68.10
39095;DHT22;24840;47.508;19.376;2023-07-28T10:28:07;30.00;66.60
39095;DHT22;24840;47.508;19.376;2023-07-28T10:30:37;29.50;67.00
39095;DHT22;24840;47.508;19.376;2023-07-28T10:33:03;30.40;66.30
39095;DHT22;24840;47.508;19.376;2023-07-28T10:35:29;31.40;67.30
39095;DHT22;24840;47.508;19.376;2023-07-28T10:37:57;30.60;66.50
39095;DHT22;24840;47.508;19.376;2023-07-28T10:40:29;30.10;66.10
39095;DHT22;24840;47.508;19.376;2023-07-28T10:42:55;30.70;68.00
39095;DHT22;24840;47.508;19.376;2023-07-28T10:45:22;31.00;65.90
39095;DHT22;24840;47.508;19.376;2023-07-28T10:47:48;31.10;66.80
39095;DHT22;24840;47.508;19.376;2023-07-28T10:50:13;31.10;65.60
39095;DHT22;24840;47.508;19.376;2023-07-28T10:52:43;30.60;66.30
39095;DHT22;24840;47.508;19.376;2023-07-28T10:55:21;30.60;63.90
39095;DHT22;24840;47.508;19.376;2023-07-28T10:57:48;30.70;66.20
39095;DHT22;24840;47.508;19.376;2023-07-28T11:00:18;30.90;64.20
39095;DHT22;24840;47.508;19.376;2023-07-28T11:05:10;30.40;64.30
39095;DHT22;24840;47.508;19.376;2023-07-28T11:07:36;30.50;65.50
39095;DHT22;24840;47.508;19.376;2023-07-28T11:10:03;31.00;65.60
39095;DHT22;24840;47.508;19.376;2023-07-28T11:12:29;30.70;64.80
39095;DHT22;24840;47.508;19.376;2023-07-28T11:14:54;31.00;66.70
39095;DHT22;24840;47.508;19.376;2023-07-28T11:17:20;31.80;66.70
39095;DHT22;24840;47.508;19.376;2023-07-28T11:19:46;31.10;65.40
39095;DHT22;24840;47.508;19.376;2023-07-28T11:22:11;31.60;64.60
39095;DHT22;24840;47.508;19.376;2023-07-28T11:24:41;31.70;63.60
39095;DHT22;24840;47.508;19.376;2023-07-28T11:27:07;32.20;63.00
39095;DHT22;24840;47.508;19.376;2023-07-28T11:29:33;31.20;63.40
39095;DHT22;24840;47.508;19.376;2023-07-28T11:31:59;31.30;62.30
39095;DHT22;24840;47.508;19.376;2023-07-28T11:34:25;31.00;62.70
39095;DHT22;24840;47.508;19.376;2023-07-28T11:36:51;31.40;63.40
39095;DHT22;24840;47.508;19.376;2023-07-28T11:39:17;31.60;62.70
39095;DHT22;24840;47.508;19.376;2023-07-28T11:41:43;31.80;63.60
39095;DHT22;24840;47.508;19.376;2023-07-28T11:44:09;31.50;63.70
39095;DHT22;24840;47.508;19.376;2023-07-28T11:46:36;31.80;64.80
39095;DHT22;24840;47.508;19.376;2023-07-28T11:51:36;31.80;66.40
39095;DHT22;24840;47.508;19.376;2023-07-28T11:54:02;32.40;63.70
39095;DHT22;24840;47.508;19.376;2023-07-28T11:56:27;32.60;60.70
39095;DHT22;24840;47.508;19.376;2023-07-28T11:58:54;32.60;63.70
39095;DHT22;24840;47.508;19.376;2023-07-28T12:01:20;32.70;61.50
39095;DHT22;24840;47.508;19.376;2023-07-28T12:03:45;32.30;64.00
39095;DHT22;24840;47.508;19.376;2023-07-28T12:06:11;32.70;61.40
39095;DHT22;24840;47.508;19.376;2023-07-28T12:08:36;33.20;61.60
39095;DHT22;24840;47.508;19.376;2023-07-28T12:11:02;33.10;59.40
39095;DHT22;24840;47.508;19.376;2023-07-28T12:13:28;32.90;62.10
39095;DHT22;24840;47.508;19.376;2023-07-28T12:15:54;33.30;60.70
39095;DHT22;24840;47.508;19.376;2023-07-28T12:18:20;33.70;58.90
39095;DHT22;24840;47.508;19.376;2023-07-28T12:20:46;33.20;61.00
39095;DHT22;24840;47.508;19.376;2023-07-28T12:23:22;32.80;59.70
39095;DHT22;24840;47.508;19.376;2023-07-28T12:25:48;32.50;59.80
39095;DHT22;24840;47.508;19.376;2023-07-28T12:28:14;33.00;60.20
39095;DHT22;24840;47.508;19.376;2023-07-28T12:30:40;33.60;60.10
39095;DHT22;24840;47.508;19.376;2023-07-28T12:33:05;33.30;59.00
39095;DHT22;24840;47.508;19.376;2023-07-28T12:35:32;33.00;59.70
39095;DHT22;24840;47.508;19.376;2023-07-28T12:38:00;32.70;59.60
39095;DHT22;24840;47.508;19.376;2023-07-28T12:40:26;33.20;61.30
39095;DHT22;24840;47.508;19.376;2023-07-28T12:42:52;33.10;59.10
39095;DHT22;24840;47.508;19.376;2023-07-28T12:45:18;32.90;60.60
39095;DHT22;24840;47.508;19.376;2023-07-28T12:47:43;33.40;59.90
39095;DHT22;24840;47.508;19.376;2023-07-28T12:50:09;33.10;59.70
39095;DHT22;24840;47.508;19.376;2023-07-28T12:52:35;32.70;59.20
39095;DHT22;24840;47.508;19.376;2023-07-28T12:55:01;32.70;61.10
39095;DHT22;24840;47.508;19.376;2023-07-28T12:57:27;32.90;60.40
39095;DHT22;24840;47.508;19.376;2023-07-28T12:59:52;33.30;59.00
39095;DHT22;24840;47.508;19.376;2023-07-28T13:02:18;34.00;57.90
39095;DHT22;24840;47.508;19.376;2023-07-28T13:04:44;34.90;57.60
39095;DHT22;24840;47.508;19.376;2023-07-28T13:07:09;34.70;55.80
39095;DHT22;24840;47.508;19.376;2023-07-28T13:09:35;33.90;58.00
39095;DHT22;24840;47.508;19.376;2023-07-28T13:12:00;34.10;57.20
39095;DHT22;24840;47.508;19.376;2023-07-28T13:14:26;34.80;55.40
39095;DHT22;24840;47.508;19.376;2023-07-28T13:16:51;34.00;55.40
39095;DHT22;24840;47.508;19.376;2023-07-28T13:19:17;34.30;57.60
39095;DHT22;24840;47.508;19.376;2023-07-28T13:21:43;34.10;57.20
39095;DHT22;24840;47.508;19.376;2023-07-28T13:24:08;33.90;58.90
39095;DHT22;24840;47.508;19.376;2023-07-28T13:26:34;34.20;59.80
39095;DHT22;24840;47.508;19.376;2023-07-28T13:28:59;34.00;55.70
39095;DHT22;24840;47.508;19.376;2023-07-28T13:31:27;33.80;57.70
39095;DHT22;24840;47.508;19.376;2023-07-28T13:33:53;34.40;57.10
39095;DHT22;24840;47.508;19.376;2023-07-28T13:36:18;34.70;55.20
39095;DHT22;24840;47.508;19.376;2023-07-28T13:38:44;35.00;57.20
39095;DHT22;24840;47.508;19.376;2023-07-28T13:41:11;35.30;57.00
39095;DHT22;24840;47.508;19.376;2023-07-28T13:43:36;35.50;55.10
39095;DHT22;24840;47.508;19.376;2023-07-28T13:46:05;35.10;55.00
39095;DHT22;24840;47.508;19.376;2023-07-28T13:48:31;34.30;54.00
39095;DHT22;24840;47.508;19.376;2023-07-28T13:50:57;34.50;54.10
39095;DHT22;24840;47.508;19.376;2023-07-28T13:53:23;34.30;57.00
39095;DHT22;24840;47.508;19.376;2023-07-28T13:55:49;33.80;55.10
39095;DHT22;24840;47.508;19.376;2023-07-28T13:58:15;34.10;55.20
39095;DHT22;24840;47.508;19.376;2023-07-28T14:00:41;34.60;56.50
39095;DHT22;24840;47.508;19.376;2023-07-28T14:03:07;33.40;56.50
39095;DHT22;24840;47.508;19.376;2023-07-28T14:05:32;32.50;57.40
39095;DHT22;24840;47.508;19.376;2023-07-28T14:07:58;31.30;58.30
39095;DHT22;24840;47.508;19.376;2023-07-28T14:10:23;30.90;60.10
39095;DHT22;24840;47.508;19.376;2023-07-28T14:12:49;30.90;61.50
39095;DHT22;24840;47.508;19.376;2023-07-28T14:15:15;30.50;59.90
39095;DHT22;24840;47.508;19.376;2023-07-28T14:17:41;30.40;61.20
39095;DHT22;24840;47.508;19.376;2023-07-28T14:20:06;30.60;61.80
39095;DHT22;24840;47.508;19.376;2023-07-28T14:22:33;30.90;60.50
39095;DHT22;24840;47.508;19.376;2023-07-28T14:24:59;31.00;61.10
39095;DHT22;24840;47.508;19.376;2023-07-28T14:27:25;31.20;61.80
39095;DHT22;24840;47.508;19.376;2023-07-28T14:29:50;31.30;62.10
39095;DHT22;24840;47.508;19.376;2023-07-28T14:32:16;30.80;61.80
39095;DHT22;24840;47.508;19.376;2023-07-28T14:34:41;30.60;61.70
39095;DHT22;24840;47.508;19.376;2023-07-28T14:37:08;30.40;63.90
39095;DHT22;24840;47.508;19.376;2023-07-28T14:39:33;31.00;62.70
39095;DHT22;24840;47.508;19.376;2023-07-28T14:41:59;31.40;60.70
39095;DHT22;24840;47.508;19.376;2023-07-28T14:44:25;31.50;61.10
39095;DHT22;24840;47.508;19.376;2023-07-28T14:46:51;32.10;59.10
39095;DHT22;24840;47.508;19.376;2023-07-28T14:49:17;32.20;60.10
39095;DHT22;24840;47.508;19.376;2023-07-28T14:51:42;32.70;57.20
39095;DHT22;24840;47.508;19.376;2023-07-28T14:54:08;31.80;58.60
39095;DHT22;24840;47.508;19.376;2023-07-28T14:56:34;31.80;59.10
39095;DHT22;24840;47.508;19.376;2023-07-28T14:58:59;31.80;58.70
39095;DHT22;24840;47.508;19.376;2023-07-28T15:01:29;31.50;58.90
39095;DHT22;24840;47.508;19.376;2023-07-28T15:03:54;31.60;59.30
39095;DHT22;24840;47.508;19.376;2023-07-28T15:06:20;31.60;58.70
39095;DHT22;24840;47.508;19.376;2023-07-28T15:08:46;31.70;58.80
39095;DHT22;24840;47.508;19.376;2023-07-28T15:11:13;32.10;57.70
39095;DHT22;24840;47.508;19.376;2023-07-28T15:13:39;32.10;57.30
39095;DHT22;24840;47.508;19.376;2023-07-28T15:16:05;32.20;56.80
39095;DHT22;24840;47.508;19.376;2023-07-28T15:18:30;32.40;58.10
39095;DHT22;24840;47.508;19.376;2023-07-28T15:20:56;32.00;57.90